sensor_id;sensor_type;location;lat;lon;timestamp;P1;durP1;ratioP1;P2;durP2;ratioP2
20884;SDS011;10602;48.000;9.654;2023-01-15T01:50:38;1.50;;;1.30;;
20884;SDS011;10602;48.000;9.654;2023-01-15T01:53:13;1.10;;;1.00;;
20884;SDS011;10602;48.000;9.654;2023-01-15T01:55:42;1.10;;;0.93;;
20884;SDS011;10602;48.000;9.654;2023-01-15T01:58:12;1.10;;;1.00;;
20884;SDS011;10602;48.000;9.654;2023-01-15T02:00:44;1.43;;;1.20;;
20884;SDS011;10602;48.000;9.654;2023-01-15T02:03:13;1.73;;;1.50;;
20884;SDS011;10602;48.000;9.654;2023-01-15T02:05:46;1.60;;;1.23;;
20884;SDS011;10602;48.000;9.654;2023-01-15T02:08:15;1.67;;;1.30;;
20884;SDS011;10602;48.000;9.654;2023-01-15T02:10:44;1.10;;;1.00;;
20884;SDS011;10602;48.000;9.654;2023-01-15T02:13:24;1.70;;;1.30;;
20884;SDS011;10602;48.000;9.654;2023-01-15T02:15:56;1.00;;;1.00;;
20884;SDS011;10602;48.000;9.654;2023-01-15T02:18:42;1.40;;;1.27;;
20884;SDS011;10602;48.000;9.654;2023-01-15T02:32:12;1.40;;;1.30;;
20884;SDS011;10602;48.000;9.654;2023-01-15T02:34:44;1.30;;;1.20;;
20884;SDS011;10602;48.000;9.654;2023-01-15T02:37:19;1.70;;;1.27;;
20884;SDS011;10602;48.000;9.654;2023-01-15T02:39:46;1.37;;;1.20;;
20884;SDS011;10602;48.000;9.654;2023-01-15T02:42:15;1.37;;;1.27;;
20884;SDS011;10602;48.000;9.654;2023-01-15T02:44:47;0.90;;;0.90;;
20884;SDS011;10602;48.000;9.654;2023-01-15T02:47:18;1.33;;;1.20;;
20884;SDS011;10602;48.000;9.654;2023-01-15T02:49:47;1.23;;;1.13;;
20884;SDS011;10602;48.000;9.654;2023-01-15T02:52:18;1.83;;;1.40;;
20884;SDS011;10602;48.000;9.654;2023-01-15T02:54:49;1.40;;;1.17;;
20884;SDS011;10602;48.000;9.654;2023-01-15T02:57:17;1.30;;;1.20;;
20884;SDS011;10602;48.000;9.654;2023-01-15T02:59:47;1.40;;;1.30;;
20884;SDS011;10602;48.000;9.654;2023-01-15T03:02:20;2.00;;;1.30;;
20884;SDS011;10602;48.000;9.654;2023-01-15T03:04:59;2.30;;;1.43;;
20884;SDS011;10602;48.000;9.654;2023-01-15T03:07:36;1.57;;;1.40;;
20884;SDS011;10602;48.000;9.654;2023-01-15T03:10:05;2.10;;;1.30;;
20884;SDS011;10602;48.000;9.654;2023-01-15T03:12:40;1.30;;;1.20;;
20884;SDS011;10602;48.000;9.654;2023-01-15T03:15:34;1.80;;;1.20;;
20884;SDS011;10602;48.000;9.654;2023-01-15T03:18:24;1.67;;;1.20;;
20884;SDS011;10602;48.000;9.654;2023-01-15T03:20:56;1.80;;;1.50;;
20884;SDS011;10602;48.000;9.654;2023-01-15T03:23:25;1.00;;;0.90;;
20884;SDS011;10602;48.000;9.654;2023-01-15T03:25:55;1.20;;;1.10;;
20884;SDS011;10602;48.000;9.654;2023-01-15T03:28:24;1.23;;;1.00;;
20884;SDS011;10602;48.000;9.654;2023-01-15T03:30:54;1.97;;;1.20;;
20884;SDS011;10602;48.000;9.654;2023-01-15T03:33:21;1.07;;;1.00;;
20884;SDS011;10602;48.000;9.654;2023-01-15T03:35:52;1.40;;;1.30;;
20884;SDS011;10602;48.000;9.654;2023-01-15T03:38:24;1.20;;;1.10;;
20884;SDS011;10602;48.000;9.654;2023-01-15T03:43:30;1.73;;;1.10;;
20884;SDS011;10602;48.000;9.654;2023-01-15T03:46:08;1.40;;;1.07;;
20884;SDS011;10602;48.000;9.654;2023-01-15T03:48:43;1.07;;;0.97;;
20884;SDS011;10602;48.000;9.654;2023-01-15T03:51:37;1.20;;;1.10;;
20884;SDS011;10602;48.000;9.654;2023-01-15T03:54:10;1.00;;;1.00;;
20884;SDS011;10602;48.000;9.654;2023-01-15T03:56:43;0.90;;;0.90;;
20884;SDS011;10602;48.000;9.654;2023-01-15T03:59:20;1.00;;;1.00;;
20884;SDS011;10602;48.000;9.654;2023-01-15T04:01:44;1.50;;;1.10;;
20884;SDS011;10602;48.000;9.654;2023-01-15T04:04:14;1.87;;;1.00;;
20884;SDS011;10602;48.000;9.654;2023-01-15T04:06:42;1.20;;;1.10;;
20884;SDS011;10602;48.000;9.654;2023-01-15T04:09:11;1.23;;;1.10;;
20884;SDS011;10602;48.000;9.654;2023-01-15T04:11:40;1.77;;;1.10;;
20884;SDS011;10602;48.000;9.654;2023-01-15T04:14:08;1.20;;;1.10;;
20884;SDS011;10602;48.000;9.654;2023-01-15T04:16:38;1.00;;;1.00;;
20884;SDS011;10602;48.000;9.654;2023-01-15T04:19:06;1.20;;;1.10;;
20884;SDS011;10602;48.000;9.654;2023-01-15T04:21:41;1.17;;;1.07;;
20884;SDS011;10602;48.000;9.654;2023-01-15T04:24:08;0.90;;;0.90;;
20884;SDS011;10602;48.000;9.654;2023-01-15T04:26:36;1.03;;;0.80;;
20884;SDS011;10602;48.000;9.654;2023-01-15T04:29:03;2.17;;;1.20;;
20884;SDS011;10602;48.000;9.654;2023-01-15T04:31:31;2.70;;;1.10;;
20884;SDS011;10602;48.000;9.654;2023-01-15T04:34:05;1.10;;;1.00;;
20884;SDS011;10602;48.000;9.654;2023-01-15T04:36:29;1.50;;;1.30;;
20884;SDS011;10602;48.000;9.654;2023-01-15T04:39:04;1.00;;;1.00;;
20884;SDS011;10602;48.000;9.654;2023-01-15T04:41:33;1.80;;;1.20;;
20884;SDS011;10602;48.000;9.654;2023-01-15T04:44:18;1.23;;;1.13;;
20884;SDS011;10602;48.000;9.654;2023-01-15T04:46:46;0.90;;;0.90;;
20884;SDS011;10602;48.000;9.654;2023-01-15T04:49:15;1.53;;;0.90;;
20884;SDS011;10602;48.000;9.654;2023-01-15T04:51:43;1.00;;;1.00;;
20884;SDS011;10602;48.000;9.654;2023-01-15T04:54:12;1.20;;;1.00;;
20884;SDS011;10602;48.000;9.654;2023-01-15T04:56:42;1.37;;;1.27;;
20884;SDS011;10602;48.000;9.654;2023-01-15T04:59:15;2.93;;;1.00;;
20884;SDS011;10602;48.000;9.654;2023-01-15T05:01:49;1.60;;;1.27;;
20884;SDS011;10602;48.000;9.654;2023-01-15T05:04:16;1.20;;;1.10;;
20884;SDS011;10602;48.000;9.654;2023-01-15T05:06:48;0.93;;;0.93;;
20884;SDS011;10602;48.000;9.654;2023-01-15T05:09:17;1.43;;;0.90;;
20884;SDS011;10602;48.000;9.654;2023-01-15T05:11:45;1.13;;;1.00;;
20884;SDS011;10602;48.000;9.654;2023-01-15T05:14:13;1.00;;;0.90;;
20884;SDS011;10602;48.000;9.654;2023-01-15T05:16:40;1.00;;;1.00;;
20884;SDS011;10602;48.000;9.654;2023-01-15T05:19:08;1.20;;;1.10;;
20884;SDS011;10602;48.000;9.654;2023-01-15T05:21:38;1.07;;;1.00;;
20884;SDS011;10602;48.000;9.654;2023-01-15T05:24:09;1.03;;;1.03;;
20884;SDS011;10602;48.000;9.654;2023-01-15T05:26:41;1.53;;;1.43;;
20884;SDS011;10602;48.000;9.654;2023-01-15T05:29:09;1.10;;;1.10;;
20884;SDS011;10602;48.000;9.654;2023-01-15T05:31:38;1.30;;;1.20;;
20884;SDS011;10602;48.000;9.654;2023-01-15T05:34:08;1.17;;;1.03;;
20884;SDS011;10602;48.000;9.654;2023-01-15T05:36:36;2.20;;;1.20;;
20884;SDS011;10602;48.000;9.654;2023-01-15T05:39:04;0.97;;;0.97;;
20884;SDS011;10602;48.000;9.654;2023-01-15T05:41:31;1.00;;;1.00;;
20884;SDS011;10602;48.000;9.654;2023-01-15T05:44:13;0.97;;;0.90;;
20884;SDS011;10602;48.000;9.654;2023-01-15T05:46:42;0.90;;;0.90;;
20884;SDS011;10602;48.000;9.654;2023-01-15T05:49:12;1.40;;;0.90;;
20884;SDS011;10602;48.000;9.654;2023-01-15T05:51:41;1.00;;;1.00;;
20884;SDS011;10602;48.000;9.654;2023-01-15T05:54:13;1.00;;;1.00;;
20884;SDS011;10602;48.000;9.654;2023-01-15T05:56:43;1.30;;;1.13;;
20884;SDS011;10602;48.000;9.654;2023-01-15T05:59:13;1.77;;;1.53;;
20884;SDS011;10602;48.000;9.654;2023-01-15T06:01:41;2.37;;;1.90;;
20884;SDS011;10602;48.000;9.654;2023-01-15T06:04:10;2.70;;;2.10;;
20884;SDS011;10602;48.000;9.654;2023-01-15T06:06:39;2.73;;;2.00;;
20884;SDS011;10602;48.000;9.654;2023-01-15T06:09:08;2.50;;;1.90;;
20884;SDS011;10602;48.000;9.654;2023-01-15T06:11:35;1.57;;;1.47;;
20884;SDS011;10602;48.000;9.654;2023-01-15T06:14:03;1.27;;;1.17;;
20884;SDS011;10602;48.000;9.654;2023-01-15T06:16:31;2.00;;;1.27;;
20884;SDS011;10602;48.000;9.654;2023-01-15T06:18:59;1.33;;;1.23;;
20884;SDS011;10602;48.000;9.654;2023-01-15T06:21:32;1.13;;;1.03;;
20884;SDS011;10602;48.000;9.654;2023-01-15T06:24:00;1.30;;;1.20;;
20884;SDS011;10602;48.000;9.654;2023-01-15T06:26:28;1.07;;;1.00;;
20884;SDS011;10602;48.000;9.654;2023-01-15T06:28:55;1.90;;;1.10;;
20884;SDS011;10602;48.000;9.654;2023-01-15T06:31:23;1.30;;;1.20;;
20884;SDS011;10602;48.000;9.654;2023-01-15T06:33:54;2.30;;;1.10;;
20884;SDS011;10602;48.000;9.654;2023-01-15T06:36:23;1.57;;;1.10;;
20884;SDS011;10602;48.000;9.654;2023-01-15T06:38:52;1.33;;;1.10;;
20884;SDS011;10602;48.000;9.654;2023-01-15T06:41:21;7.07;;;4.60;;
20884;SDS011;10602;48.000;9.654;2023-01-15T06:44:11;10.70;;;5.43;;
20884;SDS011;10602;48.000;9.654;2023-01-15T06:47:00;2.00;;;1.80;;
20884;SDS011;10602;48.000;9.654;2023-01-15T06:49:47;1.67;;;1.10;;
20884;SDS011;10602;48.000;9.654;2023-01-15T06:52:16;1.10;;;1.00;;
20884;SDS011;10602;48.000;9.654;2023-01-15T06:54:44;2.10;;;1.40;;
20884;SDS011;10602;48.000;9.654;2023-01-15T06:57:11;1.30;;;1.20;;
20884;SDS011;10602;48.000;9.654;2023-01-15T06:59:39;2.03;;;1.20;;
20884;SDS011;10602;48.000;9.654;2023-01-15T07:02:08;1.23;;;1.13;;
20884;SDS011;10602;48.000;9.654;2023-01-15T07:04:36;1.70;;;1.60;;
20884;SDS011;10602;48.000;9.654;2023-01-15T07:07:04;1.50;;;1.20;;
20884;SDS011;10602;48.000;9.654;2023-01-15T07:09:32;2.53;;;1.90;;
20884;SDS011;10602;48.000;9.654;2023-01-15T07:12:00;1.97;;;1.40;;
20884;SDS011;10602;48.000;9.654;2023-01-15T07:14:27;1.83;;;1.40;;
20884;SDS011;10602;48.000;9.654;2023-01-15T07:16:55;2.90;;;1.40;;
20884;SDS011;10602;48.000;9.654;2023-01-15T07:19:24;2.57;;;1.83;;
20884;SDS011;10602;48.000;9.654;2023-01-15T07:21:52;3.00;;;2.20;;
20884;SDS011;10602;48.000;9.654;2023-01-15T07:24:20;4.10;;;2.50;;
20884;SDS011;10602;48.000;9.654;2023-01-15T07:26:47;3.20;;;2.27;;
20884;SDS011;10602;48.000;9.654;2023-01-15T07:29:15;3.33;;;2.20;;
20884;SDS011;10602;48.000;9.654;2023-01-15T07:31:42;8.67;;;5.37;;
20884;SDS011;10602;48.000;9.654;2023-01-15T07:34:10;6.10;;;3.43;;
20884;SDS011;10602;48.000;9.654;2023-01-15T07:36:38;3.37;;;2.00;;
20884;SDS011;10602;48.000;9.654;2023-01-15T07:39:06;6.53;;;4.10;;
20884;SDS011;10602;48.000;9.654;2023-01-15T07:41:35;14.10;;;7.40;;
20884;SDS011;10602;48.000;9.654;2023-01-15T07:44:21;26.70;;;12.30;;
20884;SDS011;10602;48.000;9.654;2023-01-15T07:47:13;6.80;;;3.90;;
20884;SDS011;10602;48.000;9.654;2023-01-15T07:50:00;23.80;;;11.27;;
20884;SDS011;10602;48.000;9.654;2023-01-15T07:52:30;14.97;;;8.13;;
20884;SDS011;10602;48.000;9.654;2023-01-15T07:54:58;11.37;;;5.30;;
20884;SDS011;10602;48.000;9.654;2023-01-15T07:57:26;3.87;;;2.80;;
20884;SDS011;10602;48.000;9.654;2023-01-15T07:59:54;11.87;;;5.87;;
20884;SDS011;10602;48.000;9.654;2023-01-15T08:02:21;23.87;;;9.30;;
20884;SDS011;10602;48.000;9.654;2023-01-15T08:04:49;56.17;;;22.60;;
20884;SDS011;10602;48.000;9.654;2023-01-15T08:07:16;66.13;;;29.13;;
20884;SDS011;10602;48.000;9.654;2023-01-15T08:09:44;13.27;;;5.97;;
20884;SDS011;10602;48.000;9.654;2023-01-15T08:12:11;63.53;;;30.03;;
20884;SDS011;10602;48.000;9.654;2023-01-15T08:14:57;29.47;;;15.17;;
20884;SDS011;10602;48.000;9.654;2023-01-15T08:17:46;38.80;;;20.13;;
20884;SDS011;10602;48.000;9.654;2023-01-15T08:20:21;2.57;;;2.03;;
20884;SDS011;10602;48.000;9.654;2023-01-15T08:22:50;2.27;;;1.80;;
20884;SDS011;10602;48.000;9.654;2023-01-15T08:25:20;1.70;;;1.60;;
20884;SDS011;10602;48.000;9.654;2023-01-15T08:27:49;2.87;;;1.73;;
20884;SDS011;10602;48.000;9.654;2023-01-15T08:30:18;1.60;;;1.50;;
20884;SDS011;10602;48.000;9.654;2023-01-15T08:32:47;1.90;;;1.40;;
20884;SDS011;10602;48.000;9.654;2023-01-15T08:35:15;2.50;;;1.97;;
20884;SDS011;10602;48.000;9.654;2023-01-15T08:37:42;2.67;;;2.47;;
20884;SDS011;10602;48.000;9.654;2023-01-15T08:40:10;2.47;;;1.63;;
20884;SDS011;10602;48.000;9.654;2023-01-15T08:42:38;3.37;;;2.77;;
20884;SDS011;10602;48.000;9.654;2023-01-15T08:45:08;3.00;;;2.67;;
20884;SDS011;10602;48.000;9.654;2023-01-15T08:47:37;1.97;;;1.77;;
20884;SDS011;10602;48.000;9.654;2023-01-15T08:50:08;3.97;;;3.00;;
20884;SDS011;10602;48.000;9.654;2023-01-15T08:52:39;3.10;;;2.20;;
20884;SDS011;10602;48.000;9.654;2023-01-15T08:55:06;2.20;;;1.90;;
20884;SDS011;10602;48.000;9.654;2023-01-15T08:57:34;1.80;;;1.60;;
20884;SDS011;10602;48.000;9.654;2023-01-15T09:00:03;1.50;;;1.40;;
20884;SDS011;10602;48.000;9.654;2023-01-15T09:02:41;2.23;;;2.03;;
20884;SDS011;10602;48.000;9.654;2023-01-15T09:05:23;2.77;;;2.27;;
20884;SDS011;10602;48.000;9.654;2023-01-15T09:07:43;1.23;;;1.13;;
20884;SDS011;10602;48.000;9.654;2023-01-15T09:10:10;1.10;;;1.00;;
20884;SDS011;10602;48.000;9.654;2023-01-15T09:12:38;2.17;;;1.47;;
20884;SDS011;10602;48.000;9.654;2023-01-15T09:15:05;1.53;;;1.37;;
20884;SDS011;10602;48.000;9.654;2023-01-15T09:17:33;1.13;;;1.03;;
20884;SDS011;10602;48.000;9.654;2023-01-15T09:20:03;1.07;;;1.07;;
20884;SDS011;10602;48.000;9.654;2023-01-15T09:22:30;4.03;;;2.23;;
20884;SDS011;10602;48.000;9.654;2023-01-15T09:24:58;2.43;;;1.70;;
20884;SDS011;10602;48.000;9.654;2023-01-15T09:27:27;2.23;;;1.80;;
20884;SDS011;10602;48.000;9.654;2023-01-15T09:29:55;1.30;;;1.20;;
20884;SDS011;10602;48.000;9.654;2023-01-15T09:32:23;3.10;;;2.20;;
20884;SDS011;10602;48.000;9.654;2023-01-15T09:34:50;4.07;;;2.50;;
20884;SDS011;10602;48.000;9.654;2023-01-15T09:37:18;5.07;;;3.00;;
20884;SDS011;10602;48.000;9.654;2023-01-15T09:39:50;5.60;;;3.53;;
20884;SDS011;10602;48.000;9.654;2023-01-15T09:42:37;4.03;;;2.70;;
20884;SDS011;10602;48.000;9.654;2023-01-15T09:45:17;1.73;;;1.27;;
20884;SDS011;10602;48.000;9.654;2023-01-15T09:51:02;4.13;;;3.37;;
20884;SDS011;10602;48.000;9.654;2023-01-15T09:53:46;1.30;;;1.20;;
20884;SDS011;10602;48.000;9.654;2023-01-15T09:56:23;1.80;;;1.43;;
20884;SDS011;10602;48.000;9.654;2023-01-15T09:58:53;1.97;;;1.77;;
20884;SDS011;10602;48.000;9.654;2023-01-15T10:01:28;1.57;;;1.47;;
20884;SDS011;10602;48.000;9.654;2023-01-15T10:06:43;1.40;;;1.30;;
20884;SDS011;10602;48.000;9.654;2023-01-15T10:09:15;1.57;;;1.40;;
20884;SDS011;10602;48.000;9.654;2023-01-15T10:11:55;3.17;;;2.83;;
20884;SDS011;10602;48.000;9.654;2023-01-15T10:14:54;2.13;;;1.37;;
20884;SDS011;10602;48.000;9.654;2023-01-15T10:17:25;1.80;;;1.50;;
20884;SDS011;10602;48.000;9.654;2023-01-15T10:20:13;0.97;;;0.90;;
20884;SDS011;10602;48.000;9.654;2023-01-15T10:26:01;1.47;;;1.37;;
20884;SDS011;10602;48.000;9.654;2023-01-15T10:28:30;1.57;;;1.47;;
20884;SDS011;10602;48.000;9.654;2023-01-15T10:31:05;1.30;;;1.20;;
20884;SDS011;10602;48.000;9.654;2023-01-15T10:33:46;1.53;;;1.43;;
20884;SDS011;10602;48.000;9.654;2023-01-15T10:39:03;1.90;;;1.50;;
20884;SDS011;10602;48.000;9.654;2023-01-15T10:44:48;1.73;;;1.40;;
20884;SDS011;10602;48.000;9.654;2023-01-15T10:47:34;2.73;;;2.37;;
20884;SDS011;10602;48.000;9.654;2023-01-15T10:50:22;2.33;;;2.13;;
20884;SDS011;10602;48.000;9.654;2023-01-15T10:53:24;2.43;;;2.07;;
20884;SDS011;10602;48.000;9.654;2023-01-15T10:55:43;1.83;;;1.73;;
20884;SDS011;10602;48.000;9.654;2023-01-15T11:01:05;2.97;;;2.40;;
20884;SDS011;10602;48.000;9.654;2023-01-15T11:03:41;2.63;;;2.00;;
20884;SDS011;10602;48.000;9.654;2023-01-15T11:06:13;3.03;;;2.40;;
20884;SDS011;10602;48.000;9.654;2023-01-15T11:08:50;5.87;;;3.93;;
20884;SDS011;10602;48.000;9.654;2023-01-15T11:14:36;2.37;;;2.10;;
20884;SDS011;10602;48.000;9.654;2023-01-15T11:17:25;2.83;;;2.50;;
20884;SDS011;10602;48.000;9.654;2023-01-15T11:20:21;2.00;;;1.80;;
20884;SDS011;10602;48.000;9.654;2023-01-15T11:22:57;3.07;;;2.60;;
20884;SDS011;10602;48.000;9.654;2023-01-15T11:25:36;2.33;;;2.00;;
20884;SDS011;10602;48.000;9.654;2023-01-15T11:28:07;1.43;;;1.33;;
20884;SDS011;10602;48.000;9.654;2023-01-15T11:30:38;1.30;;;1.20;;
20884;SDS011;10602;48.000;9.654;2023-01-15T11:33:19;2.10;;;1.83;;
20884;SDS011;10602;48.000;9.654;2023-01-15T11:35:50;1.90;;;1.40;;
20884;SDS011;10602;48.000;9.654;2023-01-15T11:38:20;2.40;;;1.90;;
20884;SDS011;10602;48.000;9.654;2023-01-15T11:40:55;1.97;;;1.60;;
20884;SDS011;10602;48.000;9.654;2023-01-15T11:43:29;1.47;;;1.13;;
20884;SDS011;10602;48.000;9.654;2023-01-15T11:46:22;3.37;;;2.00;;
20884;SDS011;10602;48.000;9.654;2023-01-15T11:49:16;2.97;;;2.50;;
20884;SDS011;10602;48.000;9.654;2023-01-15T11:52:04;5.60;;;4.20;;
20884;SDS011;10602;48.000;9.654;2023-01-15T11:54:36;2.97;;;2.10;;
20884;SDS011;10602;48.000;9.654;2023-01-15T11:57:06;2.83;;;2.10;;
20884;SDS011;10602;48.000;9.654;2023-01-15T11:59:35;4.13;;;3.20;;
20884;SDS011;10602;48.000;9.654;2023-01-15T12:02:12;5.80;;;4.10;;
20884;SDS011;10602;48.000;9.654;2023-01-15T12:04:48;3.77;;;3.13;;
20884;SDS011;10602;48.000;9.654;2023-01-15T12:07:19;3.13;;;2.57;;
20884;SDS011;10602;48.000;9.654;2023-01-15T12:12:49;4.37;;;2.90;;
20884;SDS011;10602;48.000;9.654;2023-01-15T12:18:08;1.20;;;1.10;;
20884;SDS011;10602;48.000;9.654;2023-01-15T12:20:53;1.20;;;1.10;;
20884;SDS011;10602;48.000;9.654;2023-01-15T12:23:36;3.03;;;2.40;;
20884;SDS011;10602;48.000;9.654;2023-01-15T12:26:27;0.90;;;0.90;;
20884;SDS011;10602;48.000;9.654;2023-01-15T12:29:19;4.13;;;3.00;;
20884;SDS011;10602;48.000;9.654;2023-01-15T12:31:48;3.40;;;2.63;;
20884;SDS011;10602;48.000;9.654;2023-01-15T12:34:21;3.40;;;1.73;;
20884;SDS011;10602;48.000;9.654;2023-01-15T12:37:01;3.03;;;2.53;;
20884;SDS011;10602;48.000;9.654;2023-01-15T12:42:10;6.13;;;3.30;;
20884;SDS011;10602;48.000;9.654;2023-01-15T12:45:08;1.67;;;1.10;;
20884;SDS011;10602;48.000;9.654;2023-01-15T12:47:35;1.10;;;0.90;;
20884;SDS011;10602;48.000;9.654;2023-01-15T12:53:00;2.67;;;2.10;;
20884;SDS011;10602;48.000;9.654;2023-01-15T12:55:40;1.00;;;1.00;;
20884;SDS011;10602;48.000;9.654;2023-01-15T12:58:25;1.20;;;1.10;;
20884;SDS011;10602;48.000;9.654;2023-01-15T13:01:13;1.37;;;1.27;;
